VK4VP-5 Buderim QLD AU current weather conditions

sailwx.info

Wind from 036 at 10 knots gusting 19

Air temperature 24.4° C
Dewpoint 19.5° C

Last reported at 2014-Oct-26 02:46 UTC.
Time now 2014-Oct-26 03:49 UTC

Location: S 26°42' E 153°05'.
View on Google Maps.

See reports from other nearby stations

  
Tides and Currents Weather Stations Pressure Air Temp Water Temp Dewpoint Dewpoint Depression Visibility Wind Speed Wind Dir Waves Ship Positions
date/time (UTC)wind fromknots sea level pressurealtimeterstation pressurevisibilityair tempwater tempwave heightnotes
2014-Oct-26 02:46 036 10 gusting 19 24.4
2014-Oct-26 02:36 026 10 gusting 18 24.4
2014-Oct-26 02:26 031 11 gusting 20 24.4
2014-Oct-26 02:16 038 10 gusting 18 24.4
2014-Oct-26 02:06 033 9 gusting 17 24.4
2014-Oct-26 01:56 028 11 gusting 19 24.4
2014-Oct-26 01:46 036 7 gusting 17 25.0
2014-Oct-26 01:36 032 6 gusting 15 25.0
2014-Oct-26 01:26 042 8 gusting 17 24.4
2014-Oct-26 01:16 040 10 gusting 17 24.4
2014-Oct-26 01:06 029 8 gusting 15 24.4
2014-Oct-26 00:56 021 9 gusting 16 24.4
2014-Oct-26 00:46 033 8 gusting 16 25.0
2014-Oct-26 00:36 022 6 gusting 13 25.6
2014-Oct-26 00:26 022 6 gusting 13 25.6
2014-Oct-26 00:16 021 5 gusting 11 26.1
2014-Oct-26 00:06 029 6 gusting 13 26.1
2014-Oct-25 23:56 014 5 gusting 10 26.7
2014-Oct-25 23:46 024 6 gusting 12 26.1
2014-Oct-25 23:36 011 6 gusting 12 26.1
2014-Oct-25 23:26 345 5 gusting 12 25.6
2014-Oct-25 23:16 007 6 gusting 12 25.6
2014-Oct-25 23:06 336 6 gusting 14 25.0
2014-Oct-25 22:56 332 6 gusting 12 24.4
2014-Oct-25 22:46 010 5 gusting 9 24.4
2014-Oct-25 22:36 339 5 gusting 10 23.9
2014-Oct-25 22:26 351 5 gusting 11 23.9
2014-Oct-25 22:16 333 7 gusting 16 23.3
2014-Oct-25 22:06 342 5 gusting 14 23.3
2014-Oct-25 21:56 334 6 gusting 15 22.8
2014-Oct-25 21:46 326 7 gusting 15 22.8
2014-Oct-25 21:36 345 7 gusting 13 22.8
2014-Oct-25 21:26 339 5 gusting 12 22.2
2014-Oct-25 21:16 336 3 gusting 11 22.2
2014-Oct-25 21:06 006 3 gusting 9 22.2
2014-Oct-25 20:56 331 4 gusting 11 21.7
2014-Oct-25 20:46 346 1 gusting 8 21.7
2014-Oct-25 20:36 339 21.7
2014-Oct-25 20:26 341 21.1
2014-Oct-25 20:16 355 20.6
2014-Oct-25 20:06 340 0 gusting 5 20.6
2014-Oct-25 19:56 330 20.0
2014-Oct-25 19:46 334 1 gusting 6 19.4
2014-Oct-25 19:36 340 3 gusting 8 19.4
2014-Oct-25 19:26 335 2 gusting 8 19.4
2014-Oct-25 19:16 010 1 gusting 9 19.4
2014-Oct-25 19:06 338 1 gusting 7 19.4
2014-Oct-25 18:56 327 3 gusting 10 19.4
2014-Oct-25 18:46 325 5 gusting 11 19.4
2014-Oct-25 18:36 320 7 gusting 15 20.0
2014-Oct-25 18:26 321 10 gusting 18 20.0
2014-Oct-25 18:16 318 9 gusting 18 20.0
2014-Oct-25 18:06 321 7 gusting 15 20.0
2014-Oct-25 17:56 328 8 gusting 19 20.0
2014-Oct-25 17:46 328 8 gusting 14 19.4
2014-Oct-25 17:36 334 6 gusting 15 19.4
2014-Oct-25 17:26 336 5 gusting 13 19.4
2014-Oct-25 17:16 341 4 gusting 9 19.4
2014-Oct-25 17:06 337 4 gusting 8 19.4
2014-Oct-25 16:56 338 6 gusting 11 19.4
2014-Oct-25 16:46 331 5 gusting 10 19.4
2014-Oct-25 16:36 347 3 gusting 8 19.4
2014-Oct-25 16:26 031 18.9
2014-Oct-25 16:16 031 18.3
2014-Oct-25 16:06 031 18.9
2014-Oct-25 15:56 031 18.9
2014-Oct-25 15:46 035 0 gusting 7 18.9
2014-Oct-25 15:36 042 18.9
2014-Oct-25 15:26 043 1 gusting 5 18.3
2014-Oct-25 15:16 043 0 gusting 1 18.3
2014-Oct-25 15:06 043 18.3
2014-Oct-25 14:56 043 18.3
2014-Oct-25 14:46 18.3
2014-Oct-25 14:36 18.9
2014-Oct-25 14:26 18.9
2014-Oct-25 14:16 18.9
2014-Oct-25 14:06 19.4
2014-Oct-25 13:56 19.4
2014-Oct-25 13:46 043 20.0
2014-Oct-25 13:36 042 20.0
2014-Oct-25 13:28 043 0 gusting 5 20.0
2014-Oct-25 13:16 023 0 gusting 6 20.0
2014-Oct-25 13:06 001 1 gusting 8 20.0
2014-Oct-25 12:56 024 1 gusting 8 20.6
2014-Oct-25 12:46 015 3 gusting 8 20.6
2014-Oct-25 12:36 358 2 gusting 8 20.6
2014-Oct-25 12:26 359 2 gusting 7 20.6
2014-Oct-25 12:16 015 2 gusting 7 20.6
2014-Oct-25 12:06 011 2 gusting 8 20.6
2014-Oct-25 11:56 358 5 gusting 10 20.6
2014-Oct-25 11:46 004 3 gusting 8 21.1
2014-Oct-25 11:36 018 4 gusting 11 21.1
2014-Oct-25 11:26 024 5 gusting 11 21.1
2014-Oct-25 11:16 019 4 gusting 9 21.1
2014-Oct-25 11:06 005 3 gusting 8 21.1
2014-Oct-25 10:56 352 4 gusting 11 21.1
2014-Oct-25 10:46 004 4 gusting 9 21.1
2014-Oct-25 10:36 009 5 gusting 13 21.7
2014-Oct-25 10:26 004 4 gusting 10 21.7
2014-Oct-25 10:16 009 6 gusting 12 21.7
2014-Oct-25 10:08 015 5 gusting 10 21.7
2014-Oct-25 09:56 012 4 gusting 10 22.2
2014-Oct-25 09:46 021 4 gusting 10 22.2
2014-Oct-25 09:36 022 6 gusting 11 22.2
2014-Oct-25 09:26 026 5 gusting 10 22.2
2014-Oct-25 09:16 024 4 gusting 11 22.2
2014-Oct-25 09:06 022 6 gusting 13 22.2
2014-Oct-25 08:56 013 6 gusting 14 22.2
2014-Oct-25 08:46 023 6 gusting 14 22.2
2014-Oct-25 08:36 018 6 gusting 15 22.2
2014-Oct-25 08:26 021 6 gusting 14 22.2
2014-Oct-25 08:16 022 6 gusting 15 22.2
2014-Oct-25 08:06 028 6 gusting 11 22.2
2014-Oct-25 07:56 028 6 gusting 12 22.8
2014-Oct-25 07:46 021 6 gusting 17 22.8
2014-Oct-25 07:36 023 8 gusting 17 22.8
2014-Oct-25 07:26 020 7 gusting 18 22.8
2014-Oct-25 07:16 014 10 gusting 18 22.8
2014-Oct-25 07:06 017 6 gusting 14 23.3
2014-Oct-25 06:56 021 8 gusting 19 23.3
2014-Oct-25 06:46 021 8 gusting 18 23.3
2014-Oct-25 06:36 023 9 gusting 18 23.3
2014-Oct-25 06:26 021 9 gusting 20 23.3
2014-Oct-25 06:16 023 10 gusting 19 23.3
2014-Oct-25 06:06 023 13 gusting 24 23.3
2014-Oct-25 05:56 024 11 gusting 19 23.9
2014-Oct-25 05:46 019 11 gusting 20 23.9
2014-Oct-25 05:36 017 12 gusting 19 23.9
2014-Oct-25 05:26 026 10 gusting 18 23.9
2014-Oct-25 05:16 022 11 gusting 19 23.9
2014-Oct-25 05:06 024 11 gusting 23 23.9
2014-Oct-25 04:56 016 11 gusting 19 23.9
2014-Oct-25 04:46 024 11 gusting 19 23.9
2014-Oct-25 04:36 023 9 gusting 19 23.9
2014-Oct-25 04:26 028 10 gusting 21 23.9
2014-Oct-25 04:16 030 10 gusting 19 23.9
2014-Oct-25 04:06 024 10 gusting 18 23.9
2014-Oct-25 03:56 039 9 gusting 19 23.9
2014-Oct-25 03:46 028 10 gusting 18 23.9
2014-Oct-25 03:36 029 8 gusting 18 23.9
2014-Oct-25 03:26 031 8 gusting 18 23.9
2014-Oct-25 03:16 036 9 gusting 17 23.9
2014-Oct-25 03:06 030 8 gusting 18 23.9
2014-Oct-25 02:56 038 9 gusting 17 23.9
2014-Oct-25 02:46 028 8 gusting 15 24.4
2014-Oct-25 02:36 029 6 gusting 15 24.4
2014-Oct-25 02:26 033 7 gusting 17 23.9
2014-Oct-25 02:16 035 7 gusting 15 23.9
2014-Oct-25 02:06 037 7 gusting 14 23.9
2014-Oct-25 01:56 041 7 gusting 14 23.9
2014-Oct-25 01:46 036 8 gusting 17 23.9
2014-Oct-25 01:36 032 7 gusting 16 23.9
2014-Oct-25 01:26 036 6 gusting 15 23.9
2014-Oct-25 01:16 040 6 gusting 12 23.9
2014-Oct-25 01:06 038 6 gusting 11 23.9
2014-Oct-25 00:56 041 6 gusting 13 23.9
2014-Oct-25 00:46 035 6 gusting 15 23.9
2014-Oct-25 00:36 026 6 gusting 11 24.4
2014-Oct-25 00:26 027 5 gusting 10 24.4
2014-Oct-25 00:16 031 5 gusting 9 24.4
2014-Oct-25 00:06 340 4 gusting 10 24.4
2014-Oct-24 23:56 359 6 gusting 11 24.4
2014-Oct-24 23:46 342 5 gusting 13 23.9
2014-Oct-24 23:36 022 6 gusting 10 23.9
2014-Oct-24 23:26 013 5 gusting 10 23.9
2014-Oct-24 23:16 012 4 gusting 13 23.3
2014-Oct-24 23:06 335 4 gusting 9 23.3
2014-Oct-24 22:56 354 5 gusting 15 23.3
2014-Oct-24 22:46 014 4 gusting 11 23.3
2014-Oct-24 22:36 342 5 gusting 10 22.2
2014-Oct-24 22:26 346 5 gusting 11 22.2
2014-Oct-24 22:16 347 7 gusting 17 22.2
2014-Oct-24 22:06 359 4 gusting 11 22.2
2014-Oct-24 21:56 321 6 gusting 11 21.7
2014-Oct-24 21:46 332 6 gusting 13 21.7
2014-Oct-24 21:36 331 4 gusting 10 21.1
2014-Oct-24 21:26 332 4 gusting 8 21.1
2014-Oct-24 21:16 333 1 gusting 7 21.1
2014-Oct-24 21:06 343 2 gusting 8 20.6
2014-Oct-24 20:56 355 3 gusting 7 20.6
2014-Oct-24 20:46 358 0 gusting 6 20.6
2014-Oct-24 20:36 001 20.0
2014-Oct-24 20:26 001 20.0
2014-Oct-24 20:16 001 0 gusting 8 19.4
2014-Oct-24 20:06 001 1 gusting 8 19.4
2014-Oct-24 19:56 002 1 gusting 5 18.9
2014-Oct-24 19:46 004 0 gusting 5 18.3
2014-Oct-24 19:36 004 18.3
2014-Oct-24 19:26 004 0 gusting 2 17.8
2014-Oct-24 19:16 004 17.2
2014-Oct-24 19:06 003 17.2
2014-Oct-24 18:56 005 17.2
2014-Oct-24 18:46 003 17.2
2014-Oct-24 18:36 004 17.2
2014-Oct-24 18:26 004 16.7
2014-Oct-24 18:16 16.7
2014-Oct-24 18:06 004 17.2
2014-Oct-24 17:56 005 17.2
2014-Oct-24 17:46 17.2
2014-Oct-24 17:36 17.8
2014-Oct-24 17:26 004 18.3
2014-Oct-24 17:16 003 18.3
2014-Oct-24 17:06 004 0 gusting 5 18.9
2014-Oct-24 16:56 003 18.9
2014-Oct-24 16:46 004 1 gusting 7 18.9
2014-Oct-24 16:36 022 2 gusting 8 18.3
2014-Oct-24 16:26 025 1 gusting 5 18.3
2014-Oct-24 16:16 025 1 gusting 7 18.3
2014-Oct-24 16:06 025 17.8
2014-Oct-24 15:56 025 17.8
2014-Oct-24 15:46 025 16.7
2014-Oct-24 15:36 025 16.1
2014-Oct-24 15:26 16.1
2014-Oct-24 15:16 16.1
2014-Oct-24 15:06 16.7
2014-Oct-24 14:56 026 17.2
2014-Oct-24 14:46 17.8
2014-Oct-24 14:16 025 18.3
2014-Oct-24 14:06 026 18.3
2014-Oct-24 13:58 025 18.3
2014-Oct-24 13:46 025 17.8
2014-Oct-24 13:36 026 17.2
2014-Oct-24 13:26 17.8
2014-Oct-24 13:16 17.8
2014-Oct-24 13:06 18.3
2014-Oct-24 12:56 18.3
2014-Oct-24 12:46 18.3
2014-Oct-24 12:36 026 18.3
2014-Oct-24 12:26 026 18.3
2014-Oct-24 12:16 025 18.9
2014-Oct-24 12:06 026 18.9
2014-Oct-24 11:56 026 18.9
2014-Oct-24 11:46 026 19.4
2014-Oct-24 11:36 025 19.4
2014-Oct-24 11:26 025 19.4
2014-Oct-24 11:16 025 0 gusting 5 19.4
2014-Oct-24 11:06 025 0 gusting 3 19.4
2014-Oct-24 10:56 025 19.4
2014-Oct-24 10:46 026 1 gusting 5 19.4
2014-Oct-24 10:36 025 19.4
2014-Oct-24 10:26 025 19.4
2014-Oct-24 10:16 025 0 gusting 3 20.0
2014-Oct-24 10:06 025 0 gusting 3 20.0
2014-Oct-24 09:56 025 0 gusting 2 20.6
2014-Oct-24 09:46 026 1 gusting 6 20.6
2014-Oct-24 09:36 031 2 gusting 8 20.6
2014-Oct-24 09:26 035 1 gusting 6 20.6
2014-Oct-24 09:16 035 1 gusting 7 20.6
2014-Oct-24 09:06 035 1 gusting 6 20.6
2014-Oct-24 08:56 035 2 gusting 8 20.6
2014-Oct-24 08:46 036 3 gusting 9 20.6
2014-Oct-24 08:36 020 5 gusting 11 21.1
2014-Oct-24 08:26 034 4 gusting 10 21.1
2014-Oct-24 08:16 041 3 gusting 12 21.1
2014-Oct-24 08:06 042 4 gusting 8 21.1
2014-Oct-24 07:56 036 4 gusting 9 21.1
2014-Oct-24 07:46 046 3 gusting 8 21.1
2014-Oct-24 07:36 044 3 gusting 9 21.7
2014-Oct-24 07:26 043 3 gusting 8 21.7
2014-Oct-24 07:16 038 4 gusting 9 21.7
2014-Oct-24 07:06 044 5 gusting 10 22.2
2014-Oct-24 06:56 044 4 gusting 11 22.2
2014-Oct-24 06:46 033 3 gusting 10 22.2
2014-Oct-24 06:36 043 4 gusting 9 22.2
2014-Oct-24 06:26 030 4 gusting 11 22.2
2014-Oct-24 06:16 035 6 gusting 11 22.2
2014-Oct-24 06:06 055 3 gusting 9 22.8
2014-Oct-24 05:56 058 4 gusting 13 22.2
2014-Oct-24 05:46 045 4 gusting 12 22.2
2014-Oct-24 05:36 056 5 gusting 12 22.2
2014-Oct-24 05:26 042 4 gusting 12 22.8
2014-Oct-24 05:16 056 4 gusting 11 22.8
2014-Oct-24 05:06 053 4 gusting 11 22.8
2014-Oct-24 04:56 027 6 gusting 14 22.8
2014-Oct-24 04:46 034 6 gusting 12 22.8
2014-Oct-24 04:36 040 2 gusting 10 23.3
2014-Oct-24 04:26 041 5 gusting 11 22.8
2014-Oct-24 04:16 037 3 gusting 8 23.3
2014-Oct-24 04:06 033 6 gusting 11 22.8
2014-Oct-24 03:56 047 2 gusting 12 23.3
2014-Oct-24 03:46 039 3 gusting 12 23.3
2014-Oct-24 03:36 032 6 gusting 12 22.8
2014-Oct-24 03:26 039 4 gusting 11 22.8
2014-Oct-24 03:16 046 5 gusting 12 22.8
2014-Oct-24 03:06 047 5 gusting 10 23.3